N036SB KMKC-KMYZ
Flight info
| Callsign | N036SB |
|---|---|
| Flight time | 0h 47m |
| Altitude | 8000 |
| Route | TIFTO8 TIFTO KK57E |
| Aircraft | BE36/L-BDFGLORY/S |
Departure
| Time | 2026-04-30 00:26 |
|---|---|
| Airport | Charles B. Wheeler Downtown Airport (KMKC) |
Arrival
| Time | 2026-04-30 01:14 |
|---|---|
| Airport | Marysville Municipal Airport (KMYZ) |
| Time | Latitude | Longitude | Altitude | Speed | Heading |
|---|---|---|---|---|---|
| 2026-04-30 00:21 | 39.11792 | -94.59213 | 742 ft | 0 kts | 98° |
| 2026-04-30 00:22 | 39.11785 | -94.59195 | 742 ft | 3 kts | 136° |
| 2026-04-30 00:22 | 39.11779 | -94.59224 | 742 ft | 2 kts | 311° |
| 2026-04-30 00:22 | 39.11784 | -94.59231 | 742 ft | 3 kts | 298° |
| 2026-04-30 00:23 | 39.11763 | -94.59270 | 742 ft | 8 kts | 224° |
| 2026-04-30 00:23 | 39.11708 | -94.59316 | 741 ft | 12 kts | 205° |
| 2026-04-30 00:23 | 39.11646 | -94.59357 | 741 ft | 7 kts | 240° |
| 2026-04-30 00:23 | 39.11642 | -94.59382 | 741 ft | 0 kts | 272° |
| 2026-04-30 00:24 | 39.11642 | -94.59383 | 741 ft | 0 kts | 273° |
| 2026-04-30 00:24 | 39.11643 | -94.59386 | 741 ft | 2 kts | 279° |
| 2026-04-30 00:24 | 39.11643 | -94.59390 | 741 ft | 2 kts | 281° |
| 2026-04-30 00:25 | 39.11663 | -94.59460 | 741 ft | 10 kts | 320° |
| 2026-04-30 00:25 | 39.11725 | -94.59460 | 741 ft | 8 kts | 11° |
| 2026-04-30 00:25 | 39.11804 | -94.59438 | 743 ft | 27 kts | 13° |
| 2026-04-30 00:25 | 39.12165 | -94.59334 | 758 ft | 74 kts | 10° |
| 2026-04-30 00:26 | 39.12730 | -94.59177 | 868 ft | 89 kts | 14° |
| 2026-04-30 00:26 | 39.13358 | -94.58995 | 1124 ft | 93 kts | 12° |
| 2026-04-30 00:26 | 39.14009 | -94.58797 | 1379 ft | 98 kts | 14° |
| 2026-04-30 00:26 | 39.14673 | -94.58535 | 1633 ft | 107 kts | 16° |
| 2026-04-30 00:27 | 39.15457 | -94.58245 | 1668 ft | 127 kts | 15° |
| 2026-04-30 00:27 | 39.16338 | -94.57914 | 1712 ft | 136 kts | 14° |
| 2026-04-30 00:27 | 39.17241 | -94.57955 | 1984 ft | 130 kts | 339° |
| 2026-04-30 00:27 | 39.18095 | -94.58385 | 2172 ft | 132 kts | 333° |
| 2026-04-30 00:28 | 39.18913 | -94.58949 | 2332 ft | 135 kts | 334° |
| 2026-04-30 00:28 | 39.19705 | -94.59627 | 2425 ft | 143 kts | 333° |
| 2026-04-30 00:28 | 39.20659 | -94.59887 | 2591 ft | 139 kts | 344° |
| 2026-04-30 00:28 | 39.21472 | -94.60541 | 2824 ft | 137 kts | 324° |
| 2026-04-30 00:29 | 39.22202 | -94.61301 | 3071 ft | 134 kts | 322° |
| 2026-04-30 00:29 | 39.22892 | -94.62091 | 3295 ft | 132 kts | 321° |
| 2026-04-30 00:29 | 39.23575 | -94.62876 | 3524 ft | 131 kts | 321° |
| 2026-04-30 00:29 | 39.24272 | -94.63629 | 3762 ft | 130 kts | 323° |
| 2026-04-30 00:30 | 39.24868 | -94.64505 | 3987 ft | 131 kts | 307° |
| 2026-04-30 00:30 | 39.25372 | -94.65482 | 4228 ft | 130 kts | 307° |
| 2026-04-30 00:30 | 39.25874 | -94.66453 | 4479 ft | 130 kts | 308° |
| 2026-04-30 00:30 | 39.26431 | -94.67353 | 4732 ft | 129 kts | 306° |
| 2026-04-30 00:31 | 39.26808 | -94.68413 | 4978 ft | 130 kts | 298° |
| 2026-04-30 00:31 | 39.27174 | -94.69476 | 5203 ft | 129 kts | 298° |
| 2026-04-30 00:31 | 39.27537 | -94.70525 | 5415 ft | 128 kts | 298° |
| 2026-04-30 00:31 | 39.27901 | -94.71571 | 5622 ft | 127 kts | 298° |
| 2026-04-30 00:32 | 39.28265 | -94.72617 | 5801 ft | 128 kts | 298° |
| 2026-04-30 00:32 | 39.28659 | -94.73723 | 5781 ft | 142 kts | 298° |
| 2026-04-30 00:32 | 39.29085 | -94.74908 | 5777 ft | 149 kts | 298° |
| 2026-04-30 00:32 | 39.29503 | -94.76153 | 5778 ft | 154 kts | 293° |
| 2026-04-30 00:33 | 39.29827 | -94.77487 | 5779 ft | 157 kts | 289° |
| 2026-04-30 00:33 | 39.30094 | -94.78863 | 5775 ft | 158 kts | 288° |
| 2026-04-30 00:33 | 39.30352 | -94.80250 | 5772 ft | 159 kts | 287° |
| 2026-04-30 00:33 | 39.30612 | -94.81643 | 5772 ft | 160 kts | 287° |
| 2026-04-30 00:34 | 39.30875 | -94.83035 | 5777 ft | 160 kts | 287° |
| 2026-04-30 00:34 | 39.31137 | -94.84434 | 5778 ft | 161 kts | 287° |
| 2026-04-30 00:34 | 39.31403 | -94.85842 | 5772 ft | 161 kts | 289° |
| 2026-04-30 00:34 | 39.31746 | -94.87219 | 5776 ft | 161 kts | 292° |
| 2026-04-30 00:35 | 39.32111 | -94.88587 | 5776 ft | 161 kts | 292° |
| 2026-04-30 00:35 | 39.32473 | -94.89956 | 5777 ft | 161 kts | 292° |
| 2026-04-30 00:35 | 39.32827 | -94.91301 | 5928 ft | 152 kts | 292° |
| 2026-04-30 00:35 | 39.33146 | -94.92551 | 6101 ft | 146 kts | 292° |
| 2026-04-30 00:36 | 39.33473 | -94.93824 | 6083 ft | 152 kts | 292° |
| 2026-04-30 00:36 | 39.33808 | -94.95128 | 6084 ft | 154 kts | 292° |
| 2026-04-30 00:36 | 39.34149 | -94.96448 | 6086 ft | 155 kts | 292° |
| 2026-04-30 00:36 | 39.34493 | -94.97777 | 6091 ft | 156 kts | 292° |
| 2026-04-30 00:37 | 39.34838 | -94.99113 | 6087 ft | 157 kts | 292° |
| 2026-04-30 00:37 | 39.35191 | -95.00431 | 6087 ft | 156 kts | 296° |
| 2026-04-30 00:37 | 39.35669 | -95.01707 | 6088 ft | 156 kts | 298° |
| 2026-04-30 00:37 | 39.36117 | -95.02990 | 6094 ft | 157 kts | 297° |
| 2026-04-30 00:38 | 39.36566 | -95.04275 | 6096 ft | 156 kts | 297° |
| 2026-04-30 00:38 | 39.37011 | -95.05542 | 6097 ft | 153 kts | 297° |
| 2026-04-30 00:38 | 39.37451 | -95.06789 | 6091 ft | 151 kts | 297° |
| 2026-04-30 00:38 | 39.37887 | -95.08018 | 6093 ft | 150 kts | 297° |
| 2026-04-30 00:39 | 39.38323 | -95.09246 | 6087 ft | 151 kts | 297° |
| 2026-04-30 00:39 | 39.38714 | -95.10491 | 6089 ft | 152 kts | 292° |
| 2026-04-30 00:39 | 39.38999 | -95.11814 | 6087 ft | 153 kts | 288° |
| 2026-04-30 00:39 | 39.39254 | -95.13153 | 6087 ft | 154 kts | 288° |
| 2026-04-30 00:40 | 39.39557 | -95.14476 | 6093 ft | 153 kts | 291° |
| 2026-04-30 00:40 | 39.39890 | -95.15783 | 6093 ft | 153 kts | 291° |
| 2026-04-30 00:40 | 39.40225 | -95.17092 | 6092 ft | 153 kts | 291° |
| 2026-04-30 00:40 | 39.40572 | -95.18391 | 6092 ft | 153 kts | 294° |
| 2026-04-30 00:41 | 39.40957 | -95.19672 | 6089 ft | 153 kts | 295° |
| 2026-04-30 00:41 | 39.41343 | -95.20954 | 6090 ft | 153 kts | 295° |
| 2026-04-30 00:41 | 39.41729 | -95.22240 | 6089 ft | 153 kts | 295° |
| 2026-04-30 00:41 | 39.42114 | -95.23526 | 6090 ft | 153 kts | 295° |
| 2026-04-30 00:42 | 39.42501 | -95.24813 | 6092 ft | 154 kts | 295° |
| 2026-04-30 00:42 | 39.42889 | -95.26099 | 6091 ft | 154 kts | 295° |
| 2026-04-30 00:42 | 39.43281 | -95.27383 | 6091 ft | 153 kts | 295° |
| 2026-04-30 00:42 | 39.43689 | -95.28657 | 6091 ft | 153 kts | 296° |
| 2026-04-30 00:43 | 39.44097 | -95.29930 | 6095 ft | 153 kts | 296° |
| 2026-04-30 00:43 | 39.44506 | -95.31201 | 6093 ft | 153 kts | 296° |
| 2026-04-30 00:43 | 39.44915 | -95.32471 | 6093 ft | 153 kts | 296° |
| 2026-04-30 00:43 | 39.45273 | -95.33769 | 6089 ft | 154 kts | 291° |
| 2026-04-30 00:44 | 39.45591 | -95.35090 | 6084 ft | 154 kts | 291° |
| 2026-04-30 00:44 | 39.45930 | -95.36399 | 6083 ft | 153 kts | 295° |
| 2026-04-30 00:44 | 39.46356 | -95.37641 | 6083 ft | 153 kts | 297° |
| 2026-04-30 00:44 | 39.46797 | -95.38896 | 6083 ft | 153 kts | 297° |
| 2026-04-30 00:45 | 39.47239 | -95.40151 | 6082 ft | 153 kts | 297° |
| 2026-04-30 00:45 | 39.47680 | -95.41407 | 6082 ft | 153 kts | 296° |
| 2026-04-30 00:45 | 39.48015 | -95.42721 | 6083 ft | 154 kts | 288° |
| 2026-04-30 00:45 | 39.48293 | -95.44065 | 6082 ft | 155 kts | 288° |
| 2026-04-30 00:46 | 39.48570 | -95.45408 | 6083 ft | 154 kts | 288° |
| 2026-04-30 00:46 | 39.48843 | -95.46747 | 6083 ft | 154 kts | 288° |
| 2026-04-30 00:46 | 39.49114 | -95.48091 | 6084 ft | 154 kts | 288° |
| 2026-04-30 00:46 | 39.49395 | -95.49432 | 6085 ft | 154 kts | 290° |
| 2026-04-30 00:47 | 39.49831 | -95.50689 | 6083 ft | 153 kts | 299° |
| 2026-04-30 00:47 | 39.50308 | -95.51917 | 6085 ft | 153 kts | 299° |
| 2026-04-30 00:47 | 39.50785 | -95.53145 | 6083 ft | 153 kts | 299° |
| 2026-04-30 00:47 | 39.51264 | -95.54372 | 6083 ft | 152 kts | 299° |
| 2026-04-30 00:48 | 39.51741 | -95.55597 | 6085 ft | 152 kts | 299° |
| 2026-04-30 00:48 | 39.52218 | -95.56818 | 6085 ft | 152 kts | 299° |
| 2026-04-30 00:48 | 39.52695 | -95.58040 | 6085 ft | 152 kts | 299° |
| 2026-04-30 00:48 | 39.53173 | -95.59263 | 6085 ft | 152 kts | 299° |
| 2026-04-30 00:49 | 39.53651 | -95.60486 | 6083 ft | 152 kts | 299° |
| 2026-04-30 00:49 | 39.54128 | -95.61710 | 6083 ft | 152 kts | 299° |
| 2026-04-30 00:49 | 39.54606 | -95.62935 | 6082 ft | 152 kts | 299° |
| 2026-04-30 00:49 | 39.55084 | -95.64159 | 6083 ft | 152 kts | 299° |
| 2026-04-30 00:50 | 39.55562 | -95.65383 | 6081 ft | 152 kts | 299° |
| 2026-04-30 00:50 | 39.56039 | -95.66607 | 6081 ft | 152 kts | 299° |
| 2026-04-30 00:50 | 39.56517 | -95.67832 | 6082 ft | 152 kts | 299° |
| 2026-04-30 00:50 | 39.56863 | -95.69111 | 6081 ft | 154 kts | 282° |
| 2026-04-30 00:51 | 39.57008 | -95.70493 | 6083 ft | 155 kts | 278° |
| 2026-04-30 00:51 | 39.56707 | -95.71842 | 6083 ft | 162 kts | 242° |
| 2026-04-30 00:51 | 39.56361 | -95.73183 | 6080 ft | 157 kts | 271° |
| 2026-04-30 00:51 | 39.56523 | -95.74556 | 6083 ft | 154 kts | 289° |
| 2026-04-30 00:52 | 39.56861 | -95.75874 | 6086 ft | 154 kts | 292° |
| 2026-04-30 00:52 | 39.57216 | -95.77182 | 6088 ft | 154 kts | 292° |
| 2026-04-30 00:52 | 39.57571 | -95.78494 | 6089 ft | 154 kts | 292° |
| 2026-04-30 00:52 | 39.57928 | -95.79806 | 6087 ft | 154 kts | 292° |
| 2026-04-30 00:53 | 39.58285 | -95.81115 | 6089 ft | 154 kts | 292° |
| 2026-04-30 00:53 | 39.58640 | -95.82421 | 6089 ft | 153 kts | 292° |
| 2026-04-30 00:53 | 39.58993 | -95.83726 | 6089 ft | 154 kts | 292° |
| 2026-04-30 00:53 | 39.59346 | -95.85030 | 6088 ft | 153 kts | 292° |
| 2026-04-30 00:54 | 39.59701 | -95.86349 | 6087 ft | 158 kts | 292° |
| 2026-04-30 00:54 | 39.60070 | -95.87705 | 6091 ft | 161 kts | 292° |
| 2026-04-30 00:54 | 39.60445 | -95.89087 | 6095 ft | 164 kts | 292° |
| 2026-04-30 00:54 | 39.60908 | -95.90439 | 6098 ft | 165 kts | 296° |
| 2026-04-30 00:55 | 39.61378 | -95.91804 | 6094 ft | 167 kts | 296° |
| 2026-04-30 00:55 | 39.61849 | -95.93181 | 6095 ft | 167 kts | 296° |
| 2026-04-30 00:55 | 39.62794 | -95.95929 | 6094 ft | 168 kts | 296° |
| 2026-04-30 00:56 | 39.63271 | -95.97316 | 6094 ft | 168 kts | 296° |
| 2026-04-30 00:56 | 39.63749 | -95.98704 | 6094 ft | 169 kts | 296° |
| 2026-04-30 00:56 | 39.64227 | -96.00094 | 6094 ft | 169 kts | 296° |
| 2026-04-30 00:56 | 39.64704 | -96.01484 | 6096 ft | 169 kts | 296° |
| 2026-04-30 00:57 | 39.65021 | -96.02407 | 6098 ft | 169 kts | 295° |
| 2026-04-30 00:57 | 39.65500 | -96.03800 | 6096 ft | 169 kts | 295° |
| 2026-04-30 00:57 | 39.65980 | -96.05198 | 6096 ft | 169 kts | 295° |
| 2026-04-30 00:57 | 39.66459 | -96.06595 | 6095 ft | 169 kts | 295° |
| 2026-04-30 00:58 | 39.66938 | -96.07990 | 6096 ft | 169 kts | 295° |
| 2026-04-30 00:58 | 39.67417 | -96.09388 | 6089 ft | 170 kts | 295° |
| 2026-04-30 00:58 | 39.67899 | -96.10799 | 6088 ft | 172 kts | 295° |
| 2026-04-30 00:58 | 39.68386 | -96.12217 | 6088 ft | 172 kts | 295° |
| 2026-04-30 00:59 | 39.68873 | -96.13635 | 6088 ft | 172 kts | 295° |
| 2026-04-30 00:59 | 39.69370 | -96.15050 | 6092 ft | 172 kts | 295° |
| 2026-04-30 00:59 | 39.69631 | -96.16560 | 6088 ft | 175 kts | 270° |
| 2026-04-30 00:59 | 39.69536 | -96.18135 | 6091 ft | 175 kts | 268° |
| 2026-04-30 01:00 | 39.69482 | -96.19716 | 6096 ft | 174 kts | 270° |
| 2026-04-30 01:00 | 39.69462 | -96.21222 | 6363 ft | 161 kts | 271° |
| 2026-04-30 01:00 | 39.69447 | -96.22652 | 6520 ft | 158 kts | 271° |
| 2026-04-30 01:00 | 39.69433 | -96.24069 | 6634 ft | 157 kts | 271° |
| 2026-04-30 01:01 | 39.69409 | -96.25480 | 6753 ft | 156 kts | 271° |
| 2026-04-30 01:01 | 39.69393 | -96.26938 | 6647 ft | 168 kts | 272° |
| 2026-04-30 01:01 | 39.69384 | -96.28498 | 6530 ft | 176 kts | 271° |
| 2026-04-30 01:01 | 39.69368 | -96.30098 | 6408 ft | 179 kts | 271° |
| 2026-04-30 01:02 | 39.69349 | -96.31698 | 6285 ft | 180 kts | 271° |
| 2026-04-30 01:02 | 39.69330 | -96.33334 | 6157 ft | 182 kts | 271° |
| 2026-04-30 01:02 | 39.69310 | -96.34975 | 6036 ft | 182 kts | 271° |
| 2026-04-30 01:02 | 39.69286 | -96.36614 | 5914 ft | 180 kts | 269° |
| 2026-04-30 01:03 | 39.68983 | -96.38171 | 5778 ft | 177 kts | 251° |
| 2026-04-30 01:03 | 39.68570 | -96.39659 | 5648 ft | 173 kts | 253° |
| 2026-04-30 01:03 | 39.68179 | -96.41125 | 5503 ft | 171 kts | 252° |
| 2026-04-30 01:03 | 39.67789 | -96.42566 | 5359 ft | 168 kts | 252° |
| 2026-04-30 01:04 | 39.67400 | -96.44005 | 5226 ft | 170 kts | 252° |
| 2026-04-30 01:04 | 39.67006 | -96.45459 | 5096 ft | 171 kts | 252° |
| 2026-04-30 01:04 | 39.66609 | -96.46924 | 4964 ft | 172 kts | 251° |
| 2026-04-30 01:04 | 39.66210 | -96.48396 | 4836 ft | 173 kts | 251° |
| 2026-04-30 01:05 | 39.65810 | -96.49871 | 4693 ft | 174 kts | 251° |
| 2026-04-30 01:05 | 39.65549 | -96.51388 | 4550 ft | 173 kts | 271° |
| 2026-04-30 01:05 | 39.65809 | -96.52895 | 4409 ft | 172 kts | 296° |
| 2026-04-30 01:05 | 39.66526 | -96.54114 | 4271 ft | 171 kts | 320° |
| 2026-04-30 01:06 | 39.67562 | -96.54836 | 4139 ft | 170 kts | 342° |
| 2026-04-30 01:06 | 39.68684 | -96.55331 | 4010 ft | 170 kts | 341° |
| 2026-04-30 01:06 | 39.69802 | -96.55842 | 3884 ft | 170 kts | 341° |
| 2026-04-30 01:06 | 39.70919 | -96.56351 | 3759 ft | 170 kts | 341° |
| 2026-04-30 01:07 | 39.72037 | -96.56859 | 3638 ft | 170 kts | 341° |
| 2026-04-30 01:07 | 39.73138 | -96.57360 | 3509 ft | 164 kts | 341° |
| 2026-04-30 01:07 | 39.74206 | -96.57847 | 3368 ft | 161 kts | 342° |
| 2026-04-30 01:07 | 39.75257 | -96.58327 | 3221 ft | 159 kts | 341° |
| 2026-04-30 01:08 | 39.76299 | -96.58802 | 3093 ft | 157 kts | 342° |
| 2026-04-30 01:08 | 39.77305 | -96.59261 | 3085 ft | 149 kts | 342° |
| 2026-04-30 01:08 | 39.78263 | -96.59715 | 2948 ft | 149 kts | 339° |
| 2026-04-30 01:08 | 39.79230 | -96.60211 | 2709 ft | 148 kts | 340° |
| 2026-04-30 01:09 | 39.80181 | -96.60642 | 2460 ft | 141 kts | 344° |
| 2026-04-30 01:09 | 39.81071 | -96.61022 | 2286 ft | 129 kts | 342° |
| 2026-04-30 01:09 | 39.81885 | -96.61397 | 2069 ft | 115 kts | 343° |
| 2026-04-30 01:09 | 39.82561 | -96.61687 | 1829 ft | 96 kts | 341° |
| 2026-04-30 01:10 | 39.83178 | -96.61965 | 1635 ft | 94 kts | 337° |
| 2026-04-30 01:10 | 39.83798 | -96.62237 | 1510 ft | 92 kts | 339° |
| 2026-04-30 01:10 | 39.84395 | -96.62505 | 1424 ft | 91 kts | 338° |
| 2026-04-30 01:10 | 39.84996 | -96.62780 | 1329 ft | 91 kts | 340° |
| 2026-04-30 01:11 | 39.85570 | -96.63038 | 1295 ft | 81 kts | 340° |
| 2026-04-30 01:11 | 39.86068 | -96.63264 | 1305 ft | 76 kts | 337° |
| 2026-04-30 01:11 | 39.86412 | -96.63885 | 1398 ft | 106 kts | 277° |
| 2026-04-30 01:11 | 39.86166 | -96.64888 | 1535 ft | 127 kts | 233° |
| 2026-04-30 01:12 | 39.85438 | -96.65637 | 1600 ft | 143 kts | 205° |
| 2026-04-30 01:12 | 39.84453 | -96.65938 | 1700 ft | 147 kts | 176° |
| 2026-04-30 01:12 | 39.83473 | -96.65548 | 1778 ft | 151 kts | 147° |
| 2026-04-30 01:12 | 39.82867 | -96.64501 | 1849 ft | 148 kts | 103° |
| 2026-04-30 01:13 | 39.82845 | -96.63194 | 1811 ft | 140 kts | 72° |
| 2026-04-30 01:13 | 39.83457 | -96.62246 | 1587 ft | 146 kts | 19° |
| 2026-04-30 01:13 | 39.84410 | -96.62400 | 1459 ft | 145 kts | 328° |
| 2026-04-30 01:13 | 39.85264 | -96.62903 | 1310 ft | 117 kts | 339° |
| 2026-04-30 01:14 | 39.85855 | -96.63168 | 1287 ft | 68 kts | 338° |
| 2026-04-30 01:14 | 39.86154 | -96.63306 | 1287 ft | 15 kts | 332° |
| 2026-04-30 01:14 | 39.86165 | -96.63386 | 1287 ft | 9 kts | 251° |
| 2026-04-30 01:14 | 39.86115 | -96.63402 | 1283 ft | 9 kts | 163° |
| 2026-04-30 01:15 | 39.86055 | -96.63373 | 1281 ft | 9 kts | 161° |
| 2026-04-30 01:15 | 39.85992 | -96.63345 | 1280 ft | 10 kts | 160° |
| 2026-04-30 01:15 | 39.85932 | -96.63317 | 1279 ft | 7 kts | 152° |
| 2026-04-30 01:15 | 39.85860 | -96.63286 | 1281 ft | 18 kts | 159° |
| 2026-04-30 01:16 | 39.85743 | -96.63232 | 1282 ft | 17 kts | 160° |
| 2026-04-30 01:16 | 39.85642 | -96.63185 | 1282 ft | 14 kts | 161° |
| 2026-04-30 01:16 | 39.85561 | -96.63148 | 1284 ft | 11 kts | 161° |
| 2026-04-30 01:16 | 39.85496 | -96.63119 | 1284 ft | 9 kts | 160° |
| 2026-04-30 01:17 | 39.85435 | -96.63091 | 1283 ft | 9 kts | 160° |
| 2026-04-30 01:17 | 39.85385 | -96.63098 | 1283 ft | 7 kts | 211° |
| 2026-04-30 01:17 | 39.85353 | -96.63090 | 1283 ft | 2 kts | 161° |
| 2026-04-30 01:17 | 39.85348 | -96.63091 | 1283 ft | 1 kts | 231° |
| 2026-04-30 01:18 | 39.85347 | -96.63094 | 1283 ft | 0 kts | 258° |